Time;durP1;ratioP1;P1;durP2;ratioP2;P2;SDS_P1;SDS_P2;PMS_P1;PMS_P2;Temp;Humidity;BMP_temperature;BMP_pressure;BME280_temperature;BME280_humidity;BME280_pressure;Samples;Min_cycle;Max_cycle;Signal;HPM_P1;HPM_P2
2023/04/19 00:00:08;;;;;;;15.68;13.00;;;;;;;13.05;53.57;102089.59;683089;28;1466;-80
2023/04/19 00:00:28;;;;;;;16.90;13.40;;;;;;;13.13;53.61;102096.03;683187;29;1040;-80
2023/04/19 00:00:49;;;;;;;16.80;13.10;;;;;;;13.09;53.33;102094.09;683374;29;804;-80
2023/04/19 00:01:11;;;;;;;16.67;12.85;;;;;;;13.08;53.49;102094.06;685647;28;1346;-80
2023/04/19 00:01:32;;;;;;;15.63;12.80;;;;;;;13.08;53.70;102092.31;688585;28;1471;-80
2023/04/19 00:01:53;;;;;;;15.77;13.10;;;;;;;13.02;53.46;102085.13;685826;28;1351;-80
2023/04/19 00:02:15;;;;;;;15.68;13.20;;;;;;;13.13;53.50;102103.88;685793;28;1164;-80
2023/04/19 00:02:36;;;;;;;15.90;12.70;;;;;;;13.06;53.76;102090.47;685930;28;801;-80
2023/04/19 00:02:56;;;;;;;15.02;12.90;;;;;;;13.04;53.56;102085.19;683196;28;1248;-80
2023/04/19 00:03:18;;;;;;;15.37;13.47;;;;;;;13.09;53.65;102099.34;683197;29;1145;-80
2023/04/19 00:03:38;;;;;;;15.52;13.82;;;;;;;13.10;53.51;102093.25;683237;29;1111;-80
2023/04/19 00:03:59;;;;;;;16.05;13.43;;;;;;;13.09;53.63;102091.47;688508;28;1216;-80
2023/04/19 00:04:20;;;;;;;16.30;13.30;;;;;;;13.11;53.61;102102.94;688532;28;1079;-81
2023/04/19 00:04:40;;;;;;;16.58;13.40;;;;;;;13.05;53.71;102083.44;683188;28;1140;-80
2023/04/19 00:05:01;;;;;;;14.88;13.07;;;;;;;13.15;53.54;102109.19;683079;29;1276;-80
2023/04/19 00:05:23;;;;;;;15.15;13.10;;;;;;;13.02;53.63;102074.63;685857;28;1311;-80
2023/04/19 00:05:43;;;;;;;14.25;12.65;;;;;;;13.05;53.72;102086.97;685935;28;943;-80
2023/04/19 00:06:04;;;;;;;14.70;12.80;;;;;;;13.12;53.83;102099.47;688475;28;1124;-80
2023/04/19 00:06:25;;;;;;;14.83;12.63;;;;;;;13.05;53.91;102086.97;685800;28;895;-80
2023/04/19 00:06:46;;;;;;;15.10;12.70;;;;;;;13.13;53.71;102098.66;683178;28;787;-80
2023/04/19 00:07:07;;;;;;;15.25;13.10;;;;;;;13.18;53.61;102092.66;683255;29;1189;-80
2023/04/19 00:07:27;;;;;;;14.52;13.00;;;;;;;13.12;53.46;102086.38;683168;29;1129;-80
2023/04/19 00:07:50;;;;;;;14.75;13.15;;;;;;;13.11;53.91;102089.84;683249;28;1358;-80
2023/04/19 00:08:10;;;;;;;14.18;12.68;;;;;;;13.09;53.87;102091.47;683068;28;1240;-80
2023/04/19 00:08:31;;;;;;;14.45;12.85;;;;;;;13.01;53.67;102082.44;683200;29;1189;-80
2023/04/19 00:08:51;;;;;;;15.23;12.82;;;;;;;12.94;53.92;102089.16;683148;29;1114;-80
2023/04/19 00:09:12;;;;;;;15.10;12.90;;;;;;;12.95;54.11;102093.56;683081;29;1174;-80
2023/04/19 00:09:32;;;;;;;14.95;12.98;;;;;;;12.87;54.32;102089.72;685946;28;837;-80
2023/04/19 00:09:53;;;;;;;14.47;12.73;;;;;;;12.84;54.55;102094.84;685819;28;1059;-80
2023/04/19 00:10:14;;;;;;;15.13;12.68;;;;;;;12.78;54.56;102079.75;685820;28;1197;-80
2023/04/19 00:10:34;;;;;;;15.18;12.57;;;;;;;12.79;54.50;102078.03;688562;28;1187;-80
2023/04/19 00:10:55;;;;;;;15.32;13.00;;;;;;;12.74;54.59;102072.63;685785;28;1166;-80
2023/04/19 00:11:16;;;;;;;15.60;13.27;;;;;;;12.73;54.45;102076.09;683071;29;1183;-81
2023/04/19 00:11:36;;;;;;;15.00;13.40;;;;;;;12.72;54.62;102079.53;683201;29;1214;-80
2023/04/19 00:11:57;;;;;;;15.00;13.40;;;;;;;12.96;54.48;102089.25;685811;28;1217;-80
2023/04/19 00:12:17;;;;;;;15.70;13.15;;;;;;;12.88;54.08;102067.91;685729;28;1190;-80
2023/04/19 00:12:38;;;;;;;15.20;12.45;;;;;;;13.00;53.96;102083.25;685873;28;1184;-80
2023/04/19 00:13:02;;;;;;;14.68;12.65;;;;;;;13.05;53.97;102081.72;688653;28;1097;-79
2023/04/19 00:13:22;;;;;;;14.10;12.60;;;;;;;12.98;54.16;102066.59;685729;28;1422;-80
2023/04/19 00:13:43;;;;;;;14.25;12.73;;;;;;;13.04;53.84;102076.41;683300;29;784;-80
2023/04/19 00:14:04;;;;;;;14.75;12.43;;;;;;;13.04;53.90;102076.41;683105;28;1299;-80
2023/04/19 00:14:24;;;;;;;15.10;12.73;;;;;;;13.09;53.97;102085.38;680590;29;1005;-80
2023/04/19 00:14:45;;;;;;;15.10;12.73;;;;;;;13.01;53.84;102075.47;685869;28;1066;-80
2023/04/19 00:15:06;;;;;;;14.75;12.90;;;;;;;13.20;53.38;102073.53;685805;28;1334;-80
2023/04/19 00:15:26;;;;;;;14.55;12.63;;;;;;;13.24;53.44;102095.53;685825;28;1327;-80
2023/04/19 00:15:47;;;;;;;15.13;12.87;;;;;;;13.12;53.69;102080.22;683323;29;804;-80
2023/04/19 00:16:08;;;;;;;15.07;12.52;;;;;;;13.11;53.85;102079.34;685744;28;1180;-80
2023/04/19 00:16:29;;;;;;;14.63;12.15;;;;;;;13.12;53.62;102070.66;682999;29;1181;-80
2023/04/19 00:16:50;;;;;;;14.85;12.15;;;;;;;13.29;53.45;102079.13;688360;28;1348;-80
2023/04/19 00:17:11;;;;;;;15.37;12.63;;;;;;;13.35;53.21;102073.25;688389;28;1198;-80
2023/04/19 00:17:32;;;;;;;15.35;12.77;;;;;;;13.41;52.88;102083.06;683220;28;796;-80
2023/04/19 00:17:53;;;;;;;14.45;12.43;;;;;;;13.41;52.81;102076.06;683089;28;1468;-79
2023/04/19 00:18:13;;;;;;;13.75;12.20;;;;;;;13.41;52.70;102068.22;682980;29;1559;-80
2023/04/19 00:18:34;;;;;;;13.87;12.20;;;;;;;13.39;52.84;102064.66;683070;29;1976;-80
2023/04/19 00:18:55;;;;;;;14.48;12.63;;;;;;;13.41;52.46;102068.22;683190;29;1119;-80
2023/04/19 00:19:15;;;;;;;14.63;12.48;;;;;;;13.44;52.79;102080.56;685778;28;1060;-81
2023/04/19 00:19:37;;;;;;;15.10;12.70;;;;;;;13.38;52.82;102061.97;688622;28;1163;-80
2023/04/19 00:19:57;;;;;;;14.57;12.50;;;;;;;13.52;52.70;102091.34;688507;28;1089;-80
2023/04/19 00:20:19;;;;;;;14.75;12.77;;;;;;;13.54;52.51;102081.78;688354;28;1166;-80
2023/04/19 00:20:39;;;;;;;14.57;12.52;;;;;;;13.59;52.28;102080.25;685932;28;1218;-80
2023/04/19 00:21:01;;;;;;;16.98;12.73;;;;;;;13.40;52.64;102071.69;688501;28;1289;-80
2023/04/19 00:21:22;;;;;;;16.38;12.50;;;;;;;13.36;52.72;102085.53;685859;28;1107;-80
2023/04/19 00:21:42;;;;;;;16.08;12.50;;;;;;;13.18;53.12;102063.84;685814;28;1349;-80
2023/04/19 00:22:03;;;;;;;14.00;12.38;;;;;;;13.13;53.43;102061.94;685795;28;1094;-80
2023/04/19 00:22:23;;;;;;;13.87;12.37;;;;;;;13.13;53.24;102069.81;685751;28;1131;-79
2023/04/19 00:22:44;;;;;;;13.57;12.00;;;;;;;13.24;53.11;102071.94;688686;28;732;-80
2023/04/19 00:23:05;;;;;;;13.93;11.70;;;;;;;13.35;53.23;102077.59;688463;28;1256;-80
2023/04/19 00:23:26;;;;;;;14.65;11.95;;;;;;;13.39;52.54;102067.28;685681;28;1196;-80
2023/04/19 00:23:46;;;;;;;15.33;12.33;;;;;;;13.39;52.91;102075.13;685995;28;708;-80
2023/04/19 00:24:07;;;;;;;14.45;12.38;;;;;;;13.29;52.74;102067.78;683068;29;1245;-80
2023/04/19 00:24:28;;;;;;;13.45;12.02;;;;;;;13.37;52.87;102075.91;685643;28;1287;-80
2023/04/19 00:24:48;;;;;;;13.07;11.33;;;;;;;13.31;52.99;102087.06;691235;28;1278;-80
2023/04/19 00:25:09;;;;;;;14.13;11.60;;;;;;;13.19;53.19;102073.47;685812;28;984;-80
2023/04/19 00:25:30;;;;;;;14.38;11.63;;;;;;;13.15;53.32;102070.75;683157;29;1121;-80
2023/04/19 00:25:51;;;;;;;14.13;11.98;;;;;;;13.16;53.36;102075.16;685739;28;1300;-80
2023/04/19 00:26:14;;;;;;;13.45;11.70;;;;;;;13.15;53.39;102073.38;683086;28;1311;-80
2023/04/19 00:26:37;;;;;;;15.20;12.45;;;;;;;13.07;53.58;102063.41;683159;29;1231;-80
2023/04/19 00:26:58;;;;;;;15.40;12.60;;;;;;;13.15;53.10;102072.50;683019;29;1105;-80
2023/04/19 00:27:23;;;;;;;15.00;12.30;;;;;;;13.34;52.97;102087.16;685792;28;1242;-79
2023/04/19 00:27:44;;;;;;;13.07;11.35;;;;;;;13.32;52.55;102067.88;683186;29;1080;-80
2023/04/19 00:28:04;;;;;;;12.77;11.17;;;;;;;13.39;52.78;102072.50;685601;28;1416;-80
2023/04/19 00:28:26;;;;;;;13.25;11.85;;;;;;;13.46;52.30;102075.38;685814;28;1093;-80
2023/04/19 00:28:46;;;;;;;13.40;12.00;;;;;;;13.44;52.69;102067.44;685815;28;1437;-80
2023/04/19 00:29:09;;;;;;;13.45;12.05;;;;;;;13.45;52.47;102070.97;680319;29;1379;-80
2023/04/19 00:29:31;;;;;;;14.13;12.00;;;;;;;13.38;52.65;102070.72;685730;28;1115;-80
2023/04/19 00:29:52;;;;;;;15.60;11.90;;;;;;;13.49;52.38;102080.72;683067;28;1204;-79
2023/04/19 00:30:13;;;;;;;14.50;11.43;;;;;;;13.49;52.28;102081.63;683124;28;1033;-80
2023/04/19 00:30:33;;;;;;;14.35;11.40;;;;;;;13.46;52.11;102070.13;683130;28;1283;-80
2023/04/19 00:30:54;;;;;;;13.00;11.50;;;;;;;13.47;52.34;102071.91;685697;28;1149;-80
2023/04/19 00:31:15;;;;;;;13.43;11.85;;;;;;;13.43;52.34;102077.06;688342;28;1220;-80
2023/04/19 00:31:35;;;;;;;13.57;12.03;;;;;;;13.51;52.45;102081.69;683155;29;1286;-80
2023/04/19 00:31:57;;;;;;;14.18;12.02;;;;;;;13.49;52.19;102072.84;683067;29;1245;-79
2023/04/19 00:32:18;;;;;;;13.67;11.73;;;;;;;13.56;52.23;102082.72;685800;28;1097;-80
2023/04/19 00:32:39;;;;;;;13.80;11.55;;;;;;;13.54;52.27;102079.16;685932;28;808;-79
2023/04/19 00:33:00;;;;;;;12.60;10.90;;;;;;;13.57;52.04;102074.03;680531;29;929;-80
2023/04/19 00:33:20;;;;;;;13.73;10.90;;;;;;;13.58;51.89;102075.81;683042;28;1238;-81
2023/04/19 00:33:42;;;;;;;13.05;11.15;;;;;;;13.50;51.92;102064.13;685840;28;1307;-80
2023/04/19 00:34:03;;;;;;;14.40;11.47;;;;;;;13.48;51.98;102057.97;683078;28;1173;-80
2023/04/19 00:34:23;;;;;;;13.82;11.30;;;;;;;13.49;52.05;102070.22;683087;29;996;-80
2023/04/19 00:34:44;;;;;;;14.30;11.27;;;;;;;13.56;51.82;102070.53;685831;28;1485;-81
2023/04/19 00:35:05;;;;;;;13.63;11.25;;;;;;;13.57;52.20;102087.13;683046;28;1132;-80
2023/04/19 00:35:25;;;;;;;15.10;11.60;;;;;;;13.51;52.19;102066.84;683121;28;1238;-80
2023/04/19 00:35:46;;;;;;;14.60;11.40;;;;;;;13.54;52.26;102081.78;685903;28;1228;-80
2023/04/19 00:36:08;;;;;;;13.13;11.02;;;;;;;13.47;52.06;102061.41;682984;29;1189;-80
2023/04/19 00:36:29;;;;;;;12.70;10.90;;;;;;;13.53;51.92;102066.91;683035;29;1324;-80
2023/04/19 00:36:50;;;;;;;13.40;11.10;;;;;;;13.50;51.86;102056.28;683008;29;919;-79
2023/04/19 00:37:10;;;;;;;14.45;11.38;;;;;;;13.57;51.79;102074.03;683077;29;1121;-80
2023/04/19 00:37:33;;;;;;;13.60;11.20;;;;;;;13.52;51.96;102059.88;680539;29;1193;-80
2023/04/19 00:37:53;;;;;;;13.53;11.03;;;;;;;13.55;51.63;102070.47;683190;29;1137;-80
2023/04/19 00:38:26;;;;;;;12.52;10.90;;;;;;;13.64;51.66;102086.53;685649;28;1212;-80
2023/04/19 00:38:47;;;;;;;13.05;10.70;;;;;;;13.57;51.50;102074.94;685854;28;824;-80
2023/04/19 00:39:07;;;;;;;13.20;10.50;;;;;;;13.55;51.37;102065.22;685666;28;1264;-80
2023/04/19 00:39:28;;;;;;;13.47;10.70;;;;;;;13.59;51.43;102072.38;688492;28;724;-80
2023/04/19 00:39:49;;;;;;;13.32;10.93;;;;;;;13.55;51.26;102071.38;685837;28;1172;-80
2023/04/19 00:40:10;;;;;;;14.18;11.18;;;;;;;13.59;51.47;102075.00;680329;28;1259;-80
2023/04/19 00:40:31;;;;;;;13.38;10.43;;;;;;;13.57;51.72;102080.19;688535;28;1303;-80
2023/04/19 00:40:52;;;;;;;12.48;10.13;;;;;;;13.60;51.56;102074.16;688343;28;1484;-80
2023/04/19 00:41:13;;;;;;;10.90;9.68;;;;;;;13.59;51.34;102071.47;685873;28;1107;-80
2023/04/19 00:41:33;;;;;;;11.30;10.10;;;;;;;13.56;51.22;102062.66;688445;28;1081;-80
2023/04/19 00:41:56;;;;;;;11.50;10.23;;;;;;;13.56;51.67;102072.25;688483;28;1078;-80
2023/04/19 00:42:16;;;;;;;10.93;9.73;;;;;;;13.56;51.47;102067.00;688288;28;1342;-79
2023/04/19 00:42:37;;;;;;;10.67;9.57;;;;;;;13.60;51.39;102068.91;683211;29;1189;-80
2023/04/19 00:42:58;;;;;;;10.60;9.50;;;;;;;13.52;51.43;102055.50;680435;29;1380;-80
2023/04/19 00:43:19;;;;;;;11.48;10.02;;;;;;;13.61;51.39;102073.31;685679;28;1211;-80
2023/04/19 00:43:40;;;;;;;11.55;9.90;;;;;;;13.64;51.35;102076.03;685891;28;784;-80
2023/04/19 00:44:01;;;;;;;11.05;9.43;;;;;;;13.64;51.61;102077.78;685751;28;1300;-80
2023/04/19 00:44:22;;;;;;;10.73;9.30;;;;;;;13.62;51.29;102069.84;683156;29;962;-80
2023/04/19 00:44:43;;;;;;;11.00;9.13;;;;;;;13.48;51.30;102058.88;683285;29;760;-80
2023/04/19 00:45:04;;;;;;;11.10;9.13;;;;;;;13.48;51.57;102061.47;685656;28;1275;-79
2023/04/19 00:45:25;;;;;;;11.10;9.20;;;;;;;13.33;51.53;102053.94;685603;28;1224;-80
2023/04/19 00:45:47;;;;;;;11.07;9.17;;;;;;;13.27;51.57;102067.72;685820;28;1129;-80
2023/04/19 00:46:07;;;;;;;12.50;9.27;;;;;;;13.27;51.70;102069.44;685753;28;1116;-81
2023/04/19 00:46:28;;;;;;;12.95;9.15;;;;;;;13.23;51.83;102062.28;682952;29;1312;-80
2023/04/19 00:46:49;;;;;;;12.30;9.20;;;;;;;13.33;51.51;102085.38;685575;28;1174;-80
2023/04/19 00:47:11;;;;;;;9.98;8.63;;;;;;;13.21;51.54;102063.97;685679;28;1241;-80
2023/04/19 00:47:33;;;;;;;9.82;8.82;;;;;;;13.25;51.68;102065.84;683105;29;1257;-79
2023/04/19 00:47:55;;;;;;;9.00;8.10;;;;;;;13.16;51.50;102051.56;680433;28;1089;-80
2023/04/19 00:48:15;;;;;;;9.30;8.30;;;;;;;13.27;51.59;102074.69;682941;29;1025;-78
2023/04/19 00:48:36;;;;;;;9.32;8.32;;;;;;;13.21;51.66;102058.72;683109;28;1244;-80
2023/04/19 00:48:57;;;;;;;9.68;8.63;;;;;;;13.19;51.56;102057.75;682904;29;1306;-79
2023/04/19 00:49:19;;;;;;;9.65;8.65;;;;;;;13.28;51.54;102071.22;682953;29;1110;-79
2023/04/19 00:49:40;;;;;;;9.75;8.75;;;;;;;13.25;51.68;102072.00;685781;28;2056;-79
2023/04/19 00:50:03;;;;;;;9.65;8.70;;;;;;;13.13;51.33;102050.56;683091;28;1139;-80
2023/04/19 00:50:24;;;;;;;10.90;8.80;;;;;;;13.20;51.39;102062.19;683006;29;1012;-80
2023/04/19 00:50:44;;;;;;;10.95;8.65;;;;;;;13.23;51.56;102063.19;683136;28;1303;-80
2023/04/19 00:51:05;;;;;;;10.25;8.68;;;;;;;13.23;51.44;102076.31;683007;29;1093;-79
2023/04/19 00:51:26;;;;;;;9.40;8.50;;;;;;;13.23;51.32;102073.69;680486;29;1096;-80
2023/04/19 00:51:48;;;;;;;9.57;8.67;;;;;;;13.22;51.56;102071.00;683171;29;942;-80
2023/04/19 00:52:09;;;;;;;9.50;8.50;;;;;;;13.21;51.43;102063.97;685805;28;1041;-80
2023/04/19 00:52:32;;;;;;;9.57;8.20;;;;;;;13.26;51.21;102072.88;688479;28;895;-79
2023/04/19 00:52:54;;;;;;;10.10;8.07;;;;;;;13.20;51.25;102062.19;683004;28;1232;-80
2023/04/19 00:53:15;;;;;;;10.60;8.07;;;;;;;13.24;51.21;102069.31;682946;28;1312;-80
2023/04/19 00:53:37;;;;;;;10.30;8.07;;;;;;;13.22;51.19;102066.63;680608;29;902;-80
2023/04/19 00:53:58;;;;;;;9.27;8.02;;;;;;;13.13;51.31;102056.72;685682;28;1268;-80
2023/04/19 00:54:22;;;;;;;9.35;7.90;;;;;;;13.20;51.23;102068.31;688179;28;1362;-80
2023/04/19 00:54:44;;;;;;;12.50;8.20;;;;;;;13.16;51.05;102054.19;680427;28;1327;-79
2023/04/19 00:55:07;;;;;;;12.05;8.25;;;;;;;13.19;51.19;102063.00;683133;29;1161;-79
2023/04/19 00:55:28;;;;;;;9.25;8.18;;;;;;;13.24;50.97;102064.06;682989;28;1398;-80
2023/04/19 00:55:50;;;;;;;9.38;8.10;;;;;;;13.18;51.25;102063.84;685313;28;1228;-80
2023/04/19 00:56:13;;;;;;;9.13;7.97;;;;;;;13.16;50.95;102050.69;682881;28;1567;-79
2023/04/19 00:56:34;;;;;;;9.23;7.97;;;;;;;13.18;51.29;102058.59;685722;28;1172;-80
2023/04/19 00:56:55;;;;;;;9.52;8.18;;;;;;;13.23;51.16;102067.53;685541;28;1020;-79
2023/04/19 00:57:17;;;;;;;9.40;8.25;;;;;;;13.21;50.94;102056.09;688203;28;1172;-80
2023/04/19 00:57:38;;;;;;;9.00;7.97;;;;;;;13.23;50.99;102062.28;683144;28;827;-80
2023/04/19 00:57:58;;;;;;;9.10;7.97;;;;;;;13.26;51.01;102078.13;683150;28;996;-80
2023/04/19 00:58:19;;;;;;;9.05;7.80;;;;;;;13.21;50.69;102063.97;688164;28;1966;-79
2023/04/19 00:58:41;;;;;;;9.30;8.10;;;;;;;13.14;50.96;102060.19;691210;28;838;-79
2023/04/19 00:59:03;;;;;;;9.50;7.88;;;;;;;13.16;50.88;102064.69;685556;28;1269;-80
2023/04/19 00:59:25;;;;;;;9.80;7.93;;;;;;;13.15;50.91;102055.03;683004;28;1131;-80
2023/04/19 00:59:46;;;;;;;9.43;7.97;;;;;;;13.20;50.70;102064.81;683168;28;830;-80
2023/04/19 01:00:08;;;;;;;9.40;8.20;;;;;;;13.19;50.71;102060.38;688363;28;1081;-80
2023/04/19 01:00:29;;;;;;;9.30;8.35;;;;;;;13.21;50.40;102053.50;685490;28;1328;-80
2023/04/19 01:00:49;;;;;;;9.23;8.30;;;;;;;13.24;50.39;102070.22;686196;28;1241;-80
2023/04/19 01:01:10;;;;;;;8.90;8.00;;;;;;;13.24;50.42;102069.31;682947;29;1064;-80
2023/04/19 01:01:31;;;;;;;8.57;7.67;;;;;;;13.26;50.42;102067.63;682997;29;1104;-80
2023/04/19 01:01:52;;;;;;;8.57;7.68;;;;;;;13.18;50.54;102054.25;685727;28;1011;-80
2023/04/19 01:02:13;;;;;;;8.87;7.97;;;;;;;13.20;50.35;102054.31;682982;29;1162;-80
2023/04/19 01:02:33;;;;;;;8.95;8.05;;;;;;;13.26;50.42;102071.16;685758;28;821;-80
2023/04/19 01:02:54;;;;;;;9.02;8.13;;;;;;;13.15;50.47;102043.66;688365;28;1273;-80
2023/04/19 01:03:15;;;;;;;8.80;7.90;;;;;;;13.23;50.51;102057.06;688177;28;1447;-80
2023/04/19 01:03:36;;;;;;;9.25;8.25;;;;;;;13.23;50.32;102062.28;688355;28;1136;-80
2023/04/19 01:03:57;;;;;;;9.10;8.07;;;;;;;13.22;50.48;102058.75;685607;28;1227;-80
2023/04/19 01:04:18;;;;;;;9.32;8.10;;;;;;;13.37;50.49;102071.56;685625;28;1316;-80
2023/04/19 01:04:40;;;;;;;9.27;7.70;;;;;;;13.28;50.28;102053.75;683045;28;1248;-80
2023/04/19 01:05:02;;;;;;;9.33;7.87;;;;;;;13.31;50.20;102050.38;688349;28;1186;-80
2023/04/19 01:05:22;;;;;;;10.20;7.70;;;;;;;13.34;49.93;102062.69;685636;28;1105;-80
2023/04/19 01:05:43;;;;;;;10.07;7.47;;;;;;;13.29;50.26;102058.16;683712;28;1297;-78
2023/04/19 01:06:06;;;;;;;11.00;7.45;;;;;;;13.31;49.98;102058.22;688307;28;1268;-79
2023/04/19 01:06:28;;;;;;;10.23;7.70;;;;;;;13.33;49.92;102069.66;682874;28;1146;-80
2023/04/19 01:06:49;;;;;;;9.45;7.70;;;;;;;13.23;50.07;102057.97;688194;28;1346;-80
2023/04/19 01:07:10;;;;;;;8.38;7.57;;;;;;;13.26;50.09;102062.41;688274;28;1134;-80
2023/04/19 01:07:33;;;;;;;8.53;7.10;;;;;;;13.19;49.98;102049.88;685731;28;1169;-80
2023/04/19 01:07:54;;;;;;;8.82;7.32;;;;;;;13.19;50.01;102050.78;685627;28;1370;-80
2023/04/19 01:08:15;;;;;;;8.65;7.35;;;;;;;13.18;50.10;102048.09;685502;28;1159;-80
2023/04/19 01:08:36;;;;;;;8.17;7.37;;;;;;;13.27;50.20;102070.31;683043;29;1447;-79
2023/04/19 01:08:57;;;;;;;8.63;7.72;;;;;;;13.23;50.00;102050.09;680452;29;1016;-79
2023/04/19 01:09:17;;;;;;;8.45;7.45;;;;;;;13.27;49.95;102056.34;682981;29;1109;-80
2023/04/19 01:09:43;;;;;;;9.23;7.50;;;;;;;13.16;49.60;102046.31;683134;29;853;-81
2023/04/19 01:10:03;;;;;;;8.15;7.00;;;;;;;13.22;50.13;102052.66;682977;29;1259;-80
2023/04/19 01:10:24;;;;;;;7.93;7.00;;;;;;;13.22;49.69;102057.88;683014;29;1144;-80
2023/04/19 01:10:45;;;;;;;8.00;7.20;;;;;;;13.28;50.10;102066.88;683179;28;879;-80
2023/04/19 01:11:07;;;;;;;8.13;7.32;;;;;;;13.19;49.85;102060.38;685616;28;1175;-79
2023/04/19 01:11:28;;;;;;;8.52;7.32;;;;;;;13.17;49.87;102052.47;688263;28;1231;-79
2023/04/19 01:11:49;;;;;;;8.90;7.40;;;;;;;13.21;50.14;102056.09;685640;28;1276;-80
2023/04/19 01:12:10;;;;;;;8.63;7.35;;;;;;;13.23;49.89;102063.19;688374;28;1201;-80
2023/04/19 01:12:30;;;;;;;8.00;7.20;;;;;;;13.24;49.85;102062.34;685640;28;1244;-80
2023/04/19 01:13:06;;;;;;;8.50;7.00;;;;;;;13.20;49.67;102052.59;685852;28;811;-80
2023/04/19 01:13:27;;;;;;;9.45;6.95;;;;;;;13.22;49.64;102064.00;685685;28;1075;-80
2023/04/19 01:13:47;;;;;;;9.95;7.00;;;;;;;13.23;49.59;102059.66;683050;28;910;-80
2023/04/19 01:14:08;;;;;;;8.87;7.10;;;;;;;13.14;49.55;102040.13;682894;28;1167;-80
2023/04/19 01:14:30;;;;;;;8.80;6.97;;;;;;;13.26;49.69;102063.31;688283;28;1702;-80
2023/04/19 01:14:50;;;;;;;8.27;6.93;;;;;;;13.19;49.34;102057.75;685625;28;1399;-80
2023/04/19 01:15:14;;;;;;;7.80;7.00;;;;;;;13.26;49.80;102065.00;683012;28;1136;-80
2023/04/19 01:15:35;;;;;;;7.80;7.00;;;;;;;13.17;49.64;102052.47;685258;28;1384;-80
2023/04/19 01:15:56;;;;;;;7.90;7.10;;;;;;;13.25;49.59;102061.53;685701;28;1286;-80
2023/04/19 01:16:17;;;;;;;7.80;7.00;;;;;;;13.16;49.72;102048.94;682786;28;1354;-80
2023/04/19 01:16:38;;;;;;;8.73;6.93;;;;;;;13.22;49.76;102060.50;682825;29;721;-80
2023/04/19 01:16:59;;;;;;;8.65;6.68;;;;;;;13.15;49.78;102052.41;685307;28;1135;-80
2023/04/19 01:17:20;;;;;;;8.45;6.60;;;;;;;13.21;49.77;102066.59;685615;28;1211;-80
2023/04/19 01:17:41;;;;;;;8.00;6.60;;;;;;;13.25;49.60;102065.84;688460;28;862;-80
2023/04/19 01:18:01;;;;;;;8.70;6.83;;;;;;;13.21;49.71;102058.72;688038;28;1362;-80
2023/04/19 01:18:28;;;;;;;9.18;7.00;;;;;;;13.21;49.66;102061.34;688003;28;1968;-80
2023/04/19 01:18:48;;;;;;;8.90;6.90;;;;;;;13.24;49.68;102067.59;688386;28;1134;-80
2023/04/19 01:19:09;;;;;;;8.65;6.60;;;;;;;13.11;49.77;102047.91;682871;28;1075;-81
2023/04/19 01:19:30;;;;;;;8.15;6.72;;;;;;;13.18;49.73;102053.34;688293;28;1207;-80
2023/04/19 01:19:58;;;;;;;8.32;6.80;;;;;;;13.18;49.90;102050.72;688419;28;1344;-80
2023/04/19 01:20:19;;;;;;;8.60;6.43;;;;;;;13.19;50.21;102055.13;688230;28;1099;-80
2023/04/19 01:20:39;;;;;;;9.45;7.20;;;;;;;13.23;49.89;102062.28;685698;28;1183;-80
2023/04/19 01:21:00;;;;;;;9.50;6.93;;;;;;;13.26;49.98;102062.41;683070;29;1009;-80
2023/04/19 01:21:21;;;;;;;9.32;7.20;;;;;;;13.20;49.96;102059.56;682918;29;1179;-80
2023/04/19 01:21:42;;;;;;;9.20;7.03;;;;;;;13.12;49.86;102044.44;685693;28;1220;-80
2023/04/19 01:22:03;;;;;;;9.40;7.25;;;;;;;13.23;49.91;102057.06;682901;28;1037;-80
2023/04/19 01:22:24;;;;;;;8.15;6.93;;;;;;;13.14;50.16;102047.09;688323;28;1130;-80
2023/04/19 01:22:46;;;;;;;7.70;6.80;;;;;;;13.13;50.11;102048.84;688355;28;1342;-80
2023/04/19 01:23:10;;;;;;;7.50;6.70;;;;;;;13.20;50.17;102062.19;682937;29;1068;-80
2023/04/19 01:23:30;;;;;;;7.60;6.80;;;;;;;13.11;49.81;102047.00;683030;28;1413;-80
2023/04/19 01:23:51;;;;;;;7.60;6.80;;;;;;;13.14;50.01;102049.72;685810;28;858;-80
2023/04/19 01:24:12;;;;;;;7.90;6.90;;;;;;;13.21;50.24;102056.09;685507;28;1251;-80
2023/04/19 01:24:33;;;;;;;8.30;7.30;;;;;;;13.15;50.09;102052.41;685679;28;1370;-80
2023/04/19 01:24:53;;;;;;;7.95;7.15;;;;;;;13.12;50.25;102044.44;685581;28;1420;-80
2023/04/19 01:25:16;;;;;;;8.57;7.68;;;;;;;13.16;50.26;102056.81;682964;29;1083;-80
2023/04/19 01:25:37;;;;;;;8.50;7.60;;;;;;;13.19;50.34;102049.88;683016;28;1311;-80
2023/04/19 01:26:00;;;;;;;8.57;7.65;;;;;;;13.10;50.23;102042.59;685644;28;1008;-80
2023/04/19 01:26:21;;;;;;;8.75;7.45;;;;;;;13.23;50.16;102068.44;685573;28;1070;-80
2023/04/19 01:26:42;;;;;;;8.85;7.53;;;;;;;13.12;50.31;102056.63;683142;29;855;-80
2023/04/19 01:27:02;;;;;;;8.77;7.67;;;;;;;13.10;50.55;102053.94;682768;29;1065;-80
2023/04/19 01:27:57;;;;;;;8.35;7.45;;;;;;;13.21;50.79;102069.22;683070;29;756;-80
2023/04/19 01:28:17;;;;;;;8.77;7.75;;;;;;;13.05;50.77;102047.66;682904;29;1073;-80
2023/04/19 01:28:38;;;;;;;9.27;7.93;;;;;;;13.11;50.90;102049.63;682994;28;1212;-80
2023/04/19 01:28:59;;;;;;;10.10;8.27;;;;;;;13.13;50.88;102059.31;685666;28;1030;-80
2023/04/19 01:29:20;;;;;;;10.85;8.40;;;;;;;13.14;51.05;102055.88;687532;28;1123;-79
2023/04/19 01:29:41;;;;;;;10.30;8.50;;;;;;;13.18;50.81;102069.06;682909;29;875;-80
2023/04/19 01:30:02;;;;;;;10.70;8.33;;;;;;;13.12;50.80;102057.53;682955;29;1080;-80
2023/04/19 01:30:22;;;;;;;10.02;7.90;;;;;;;13.18;50.75;102061.22;685524;28;1311;-80
2023/04/19 01:30:43;;;;;;;10.57;7.80;;;;;;;13.11;51.00;102052.25;685665;28;1116;-80
2023/04/19 01:31:04;;;;;;;9.10;7.40;;;;;;;13.12;50.76;102054.03;685585;28;1094;-80
2023/04/19 01:31:24;;;;;;;9.32;7.78;;;;;;;13.11;50.94;102047.00;685565;28;1018;-80
2023/04/19 01:31:50;;;;;;;8.90;8.00;;;;;;;13.07;50.79;102045.06;688391;28;1184;-80
2023/04/19 01:32:13;;;;;;;8.98;8.07;;;;;;;13.08;50.82;102047.75;688277;28;1084;-80
2023/04/19 01:32:33;;;;;;;9.27;8.27;;;;;;;13.07;50.92;102045.97;682886;28;1230;-80
2023/04/19 01:32:54;;;;;;;10.63;8.10;;;;;;;13.12;51.05;102057.53;685502;28;1202;-80
2023/04/19 01:33:15;;;;;;;11.60;8.35;;;;;;;13.10;51.03;102055.69;688170;28;1177;-80
2023/04/19 01:33:36;;;;;;;11.35;8.02;;;;;;;13.07;51.06;102056.47;688428;28;847;-80
2023/04/19 01:33:57;;;;;;;9.93;7.90;;;;;;;13.07;51.11;102051.22;685806;28;1190;-80
2023/04/19 01:34:17;;;;;;;10.57;7.85;;;;;;;13.09;50.78;102048.66;685537;28;1038;-79
2023/04/19 01:34:38;;;;;;;10.77;8.10;;;;;;;13.14;51.05;102066.34;683024;28;1123;-81
2023/04/19 01:34:59;;;;;;;11.10;8.30;;;;;;;13.06;51.29;102049.44;682950;28;1204;-80
2023/04/19 01:35:20;;;;;;;8.82;7.85;;;;;;;13.13;51.20;102061.03;682851;28;1211;-80
2023/04/19 01:35:40;;;;;;;8.70;7.60;;;;;;;13.08;51.33;102053.00;685675;28;1416;-80
2023/04/19 01:36:01;;;;;;;8.40;7.50;;;;;;;13.05;51.08;102046.75;682992;28;1370;-80
2023/04/19 01:36:59;;;;;;;8.68;7.78;;;;;;;13.14;51.03;102061.09;682726;28;1078;-80
2023/04/19 01:37:19;;;;;;;11.85;7.57;;;;;;;13.03;50.74;102051.91;683010;29;1095;-80
2023/04/19 01:37:40;;;;;;;8.93;7.40;;;;;;;13.07;50.65;102051.22;685653;28;1049;-80
2023/04/19 01:38:04;;;;;;;9.15;7.47;;;;;;;13.02;50.79;102048.44;688239;28;1071;-79
2023/04/19 01:38:24;;;;;;;8.23;7.38;;;;;;;13.05;50.80;102047.66;685499;28;1930;-80
2023/04/19 01:38:46;;;;;;;8.70;7.60;;;;;;;13.00;50.86;102052.72;688239;28;1223;-82
2023/04/19 01:39:07;;;;;;;8.40;7.40;;;;;;;13.08;50.84;102066.09;682896;28;1206;-80
2023/04/19 01:39:28;;;;;;;8.23;7.10;;;;;;;13.03;50.39;102044.06;685726;28;1209;-80
2023/04/19 01:39:48;;;;;;;7.75;6.90;;;;;;;13.05;50.73;102052.91;683004;28;1054;-81
2023/04/19 01:40:09;;;;;;;7.40;6.60;;;;;;;13.05;50.40;102054.63;685583;28;1189;-80
2023/04/19 01:40:30;;;;;;;7.45;6.65;;;;;;;13.05;50.64;102060.75;683009;29;1512;-80
2023/04/19 01:40:52;;;;;;;7.40;6.60;;;;;;;12.99;50.33;102044.78;685577;28;1020;-79
2023/04/19 01:41:12;;;;;;;7.20;6.50;;;;;;;13.00;50.78;102060.59;685549;28;1303;-80